Fort Lauderdale Hollywood International Airport
KFLL : now visible

Airfield :











YOU CAN JOIN US ON...

 
LOGIN :

Register | Disclaimer

   EN    FR    IT 

 









Legend :    VFR   Marginal VFR   IFR   Intensive IFR   Very Intensive IFR
Visi :
Ceiling :
>= 8 km
>= 3000ft
5 to 8 km
1000 to 3000 ft
1500m to 5 km
500 to 1000 ft
800 to 1500m
200 to 500 ft
< 800m
< 200 ft
Symbols :   Thunderstorms  Fog  Heavy snow  Heavy precipitations  Wind > 20 kt







- Airport Elevation : 9 ft
- IATA code : FLL


KFLL - Fort Lauderdale Hollywood International

CURRENT METAR :
  • 170353Z 00000KT 10SM FEW250 23/21 A2996 RMK AO2 SLP144 T02280206

EXPIRED METARs :
  • 170253Z 23003KT 10SM FEW040 SCT250 23/21 A2995 RMK AO2 SLP141 T02330206 53018
  • 170153Z VRB05KT 10SM BKN042 BKN250 24/21 A2993 RMK AO2 SLP134 T02390211

TAF KFLL
Valid from the 17 at 03:00 until the 18 at 06:00 UTC


170300Z 1703/1806 23003KT P6SM FEW040 SCT250
FM171400 18008KT P6SM FEW040 SCT250
FM171700 16015KT P6SM SCT040 SCT250
FM180100 16008KT P6SM FEW035 SCT250
KZMA FIR / North America



MET'MAP, your aeronautical weather chart ! - Copyright ORBIFLY December 2007 - Disclaimer

ORBIFLY MET'MAP TEAM :

Programming & Development : Alexandra Zaïnal
Concept & Development : Baudouin d'Aumeries
Co-Development & Prog : Marc-Olivier Méhu
Technical & hardware support : Manuel Goepfert

Contact : metmap@orbifly.com




SOURCES & CREDITS :

   NOAA       Earth
Advisory